sensor_id;sensor_type;location;lat;lon;timestamp;pressure;altitude;pressure_sealevel;temperature;humidity
59987;BME280;46181;51.498;5.392;2022-12-18T00:01:30;102741.9;;;0.18;59.21289
59987;BME280;46181;51.498;5.392;2022-12-18T00:06:00;102746.1;;;0.1;59.20313
59987;BME280;46181;51.498;5.392;2022-12-18T00:10:32;102750.4;;;0.06;59.25195
59987;BME280;46181;51.498;5.392;2022-12-18T00:14:59;102747.8;;;0.04;59.25977
59987;BME280;46181;51.498;5.392;2022-12-18T00:19:29;102745.7;;;0.01;59.3418
59987;BME280;46181;51.498;5.392;2022-12-18T00:23:59;102737.6;;;-0.03;59.29492
59987;BME280;46181;51.498;5.392;2022-12-18T00:28:29;102717.6;;;-0.09;59.23047
59987;BME280;46181;51.498;5.392;2022-12-18T00:32:59;102703.9;;;-0.11;59.25
59987;BME280;46181;51.498;5.392;2022-12-18T00:37:29;102705.9;;;-0.15;59.18848
59987;BME280;46181;51.498;5.392;2022-12-18T00:41:59;102703;;;-0.23;59.1123
59987;BME280;46181;51.498;5.392;2022-12-18T00:46:29;102697.3;;;-0.29;59.09277
59987;BME280;46181;51.498;5.392;2022-12-18T00:51:00;102703.2;;;-0.35;59.10742
59987;BME280;46181;51.498;5.392;2022-12-18T00:55:29;102699.8;;;-0.39;59.18848
59987;BME280;46181;51.498;5.392;2022-12-18T00:59:59;102699.1;;;-0.41;59.25195
59987;BME280;46181;51.498;5.392;2022-12-18T01:04:29;102714.6;;;-0.43;59.17188
59987;BME280;46181;51.498;5.392;2022-12-18T01:08:59;102704.8;;;-0.47;59.13379
59987;BME280;46181;51.498;5.392;2022-12-18T01:13:29;102717.6;;;-0.53;59.0918
59987;BME280;46181;51.498;5.392;2022-12-18T01:18:00;102725;;;-0.58;59.27051
59987;BME280;46181;51.498;5.392;2022-12-18T01:22:29;102727.2;;;-0.56;59.20898
59987;BME280;46181;51.498;5.392;2022-12-18T01:26:59;102731.3;;;-0.6;59.16992
59987;BME280;46181;51.498;5.392;2022-12-18T01:31:31;102731.9;;;-0.58;59.23828
59987;BME280;46181;51.498;5.392;2022-12-18T01:35:59;102719.8;;;-0.55;59.2666
59987;BME280;46181;51.498;5.392;2022-12-18T01:40:29;102710.2;;;-0.56;59.27441
59987;BME280;46181;51.498;5.392;2022-12-18T01:45:20;102718.2;;;-0.6;59.34668
59987;BME280;46181;51.498;5.392;2022-12-18T01:49:29;102713.4;;;-0.53;59.24512
59987;BME280;46181;51.498;5.392;2022-12-18T01:53:59;102720.2;;;-0.52;59.22559
59987;BME280;46181;51.498;5.392;2022-12-18T01:58:32;102711.8;;;-0.51;59.28125
59987;BME280;46181;51.498;5.392;2022-12-18T02:02:59;102710;;;-0.51;59.1709
59987;BME280;46181;51.498;5.392;2022-12-18T02:07:35;102700.8;;;-0.54;59.18945
59987;BME280;46181;51.498;5.392;2022-12-18T02:12:07;102697.4;;;-0.58;59.23828
59987;BME280;46181;51.498;5.392;2022-12-18T02:16:34;102699.8;;;-0.59;59.19434
59987;BME280;46181;51.498;5.392;2022-12-18T02:21:04;102704.7;;;-0.63;59.15527
59987;BME280;46181;51.498;5.392;2022-12-18T02:25:43;102701.8;;;-0.66;59.2168
59987;BME280;46181;51.498;5.392;2022-12-18T02:30:00;102699.6;;;-0.65;59.1748
59987;BME280;46181;51.498;5.392;2022-12-18T02:34:32;102702.5;;;-0.68;59.1377
59987;BME280;46181;51.498;5.392;2022-12-18T02:39:00;102697.4;;;-0.66;58.97559
59987;BME280;46181;51.498;5.392;2022-12-18T02:43:29;102691.9;;;-0.73;58.8457
59987;BME280;46181;51.498;5.392;2022-12-18T02:47:59;102683.8;;;-0.77;59.01465
59987;BME280;46181;51.498;5.392;2022-12-18T02:52:35;102674.2;;;-0.83;59.05078
59987;BME280;46181;51.498;5.392;2022-12-18T02:57:02;102669;;;-0.85;59.02637
59987;BME280;46181;51.498;5.392;2022-12-18T03:01:34;102678;;;-0.9;59.00781
59987;BME280;46181;51.498;5.392;2022-12-18T03:06:02;102674.4;;;-0.92;59.04883
59987;BME280;46181;51.498;5.392;2022-12-18T03:10:34;102663.1;;;-0.97;59.07422
59987;BME280;46181;51.498;5.392;2022-12-18T03:15:02;102657.1;;;-0.97;59.10742
59987;BME280;46181;51.498;5.392;2022-12-18T03:19:32;102649.6;;;-1;59.02734
59987;BME280;46181;51.498;5.392;2022-12-18T03:24:00;102651.7;;;-1.02;59.03418
59987;BME280;46181;51.498;5.392;2022-12-18T03:28:31;102651.9;;;-1.05;59.03027
59987;BME280;46181;51.498;5.392;2022-12-18T03:33:05;102660.3;;;-1.07;58.92969
59987;BME280;46181;51.498;5.392;2022-12-18T03:37:32;102665.5;;;-1.11;58.93652
59987;BME280;46181;51.498;5.392;2022-12-18T03:42:08;102667.8;;;-1.17;58.96094
59987;BME280;46181;51.498;5.392;2022-12-18T03:46:36;102660.4;;;-1.17;58.94824
59987;BME280;46181;51.498;5.392;2022-12-18T03:51:04;102654.6;;;-1.19;58.91309
59987;BME280;46181;51.498;5.392;2022-12-18T03:55:31;102644.4;;;-1.2;58.88965
59987;BME280;46181;51.498;5.392;2022-12-18T04:00:05;102630.4;;;-1.23;58.89746
59987;BME280;46181;51.498;5.392;2022-12-18T04:04:30;102613.3;;;-1.22;58.87598
59987;BME280;46181;51.498;5.392;2022-12-18T04:09:00;102610;;;-1.2;58.86816
59987;BME280;46181;51.498;5.392;2022-12-18T04:13:37;102612;;;-1.22;58.97461
59987;BME280;46181;51.498;5.392;2022-12-18T04:17:59;102605.3;;;-1.09;58.58887
59987;BME280;46181;51.498;5.392;2022-12-18T04:22:29;102590.6;;;-1.11;58.54102
59987;BME280;46181;51.498;5.392;2022-12-18T04:26:59;102594.7;;;-1.13;58.59375
59987;BME280;46181;51.498;5.392;2022-12-18T04:31:30;102609.8;;;-1.16;58.58984
59987;BME280;46181;51.498;5.392;2022-12-18T04:35:59;102612;;;-1.18;58.60742
59987;BME280;46181;51.498;5.392;2022-12-18T04:40:29;102617.1;;;-1.19;58.65039
59987;BME280;46181;51.498;5.392;2022-12-18T04:44:59;102625.1;;;-1.23;58.63477
59987;BME280;46181;51.498;5.392;2022-12-18T04:49:29;102636.3;;;-1.23;58.66699
59987;BME280;46181;51.498;5.392;2022-12-18T04:53:59;102644.5;;;-1.27;58.68262
59987;BME280;46181;51.498;5.392;2022-12-18T04:58:29;102643.5;;;-1.32;58.61133
59987;BME280;46181;51.498;5.392;2022-12-18T05:02:59;102647.6;;;-1.38;58.65723
59987;BME280;46181;51.498;5.392;2022-12-18T05:07:29;102640.9;;;-1.38;58.66797
59987;BME280;46181;51.498;5.392;2022-12-18T05:11:59;102644.9;;;-1.43;58.61719
59987;BME280;46181;51.498;5.392;2022-12-18T05:16:29;102653.5;;;-1.44;58.66992
59987;BME280;46181;51.498;5.392;2022-12-18T05:21:00;102643.8;;;-1.46;58.72266
59987;BME280;46181;51.498;5.392;2022-12-18T05:25:30;102639.1;;;-1.45;58.625
59987;BME280;46181;51.498;5.392;2022-12-18T05:29:59;102638.2;;;-1.41;58.66406
59987;BME280;46181;51.498;5.392;2022-12-18T05:34:29;102636.7;;;-1.43;58.61816
59987;BME280;46181;51.498;5.392;2022-12-18T05:38:59;102640.2;;;-1.45;58.57031
59987;BME280;46181;51.498;5.392;2022-12-18T05:43:30;102623.4;;;-1.48;58.56543
59987;BME280;46181;51.498;5.392;2022-12-18T05:47:59;102617.4;;;-1.49;58.53223
59987;BME280;46181;51.498;5.392;2022-12-18T05:52:29;102629.1;;;-1.5;58.49707
59987;BME280;46181;51.498;5.392;2022-12-18T05:56:59;102622;;;-1.53;58.46094
59987;BME280;46181;51.498;5.392;2022-12-18T06:01:30;102620.2;;;-1.56;58.46777
59987;BME280;46181;51.498;5.392;2022-12-18T06:05:59;102617.8;;;-1.58;58.46582
59987;BME280;46181;51.498;5.392;2022-12-18T06:10:29;102612;;;-1.62;58.47168
59987;BME280;46181;51.498;5.392;2022-12-18T06:14:59;102614.6;;;-1.66;58.45313
59987;BME280;46181;51.498;5.392;2022-12-18T06:19:29;102619.1;;;-1.68;58.43945
59987;BME280;46181;51.498;5.392;2022-12-18T06:23:59;102621.6;;;-1.74;58.43262
59987;BME280;46181;51.498;5.392;2022-12-18T06:28:29;102622.7;;;-1.78;58.50391
59987;BME280;46181;51.498;5.392;2022-12-18T06:33:00;102620.9;;;-1.78;58.52441
59987;BME280;46181;51.498;5.392;2022-12-18T06:37:29;102620.9;;;-1.78;58.5791
59987;BME280;46181;51.498;5.392;2022-12-18T06:41:59;102615.3;;;-1.76;58.5498
59987;BME280;46181;51.498;5.392;2022-12-18T06:46:29;102603.6;;;-1.76;58.53906
59987;BME280;46181;51.498;5.392;2022-12-18T06:50:59;102595.6;;;-1.76;58.58105
59987;BME280;46181;51.498;5.392;2022-12-18T06:55:31;102602.2;;;-1.74;58.57422
59987;BME280;46181;51.498;5.392;2022-12-18T06:59:59;102599.6;;;-1.75;58.57324
59987;BME280;46181;51.498;5.392;2022-12-18T07:04:31;102603.5;;;-1.74;58.53027
59987;BME280;46181;51.498;5.392;2022-12-18T07:09:00;102600.4;;;-1.74;58.56348
59987;BME280;46181;51.498;5.392;2022-12-18T07:13:29;102587.3;;;-1.73;58.50977
59987;BME280;46181;51.498;5.392;2022-12-18T07:17:59;102577.6;;;-1.74;58.54102
59987;BME280;46181;51.498;5.392;2022-12-18T07:22:30;102565.8;;;-1.75;58.57324
59987;BME280;46181;51.498;5.392;2022-12-18T07:26:59;102545.4;;;-1.74;58.62891
59987;BME280;46181;51.498;5.392;2022-12-18T07:31:30;102537.1;;;-1.66;58.62793
59987;BME280;46181;51.498;5.392;2022-12-18T07:35:59;102538.2;;;-1.54;58.49219
59987;BME280;46181;51.498;5.392;2022-12-18T07:40:29;102534.1;;;-1.52;58.59375
59987;BME280;46181;51.498;5.392;2022-12-18T07:44:59;102522.5;;;-1.47;58.58984
59987;BME280;46181;51.498;5.392;2022-12-18T07:49:29;102513.8;;;-1.42;58.62988
59987;BME280;46181;51.498;5.392;2022-12-18T07:54:00;102502.8;;;-1.34;58.60742
59987;BME280;46181;51.498;5.392;2022-12-18T07:58:29;102492.6;;;-1.32;58.61133
59987;BME280;46181;51.498;5.392;2022-12-18T08:02:59;102491.1;;;-1.24;58.56641
59987;BME280;46181;51.498;5.392;2022-12-18T08:07:29;102505.3;;;-1.16;58.58789
59987;BME280;46181;51.498;5.392;2022-12-18T08:11:59;102506.8;;;-1.07;58.49121
59987;BME280;46181;51.498;5.392;2022-12-18T08:16:30;102498.4;;;-1.02;58.53027
59987;BME280;46181;51.498;5.392;2022-12-18T08:21:06;102508.8;;;-0.96;58.5293
59987;BME280;46181;51.498;5.392;2022-12-18T08:25:29;102513.3;;;-0.86;58.47754
59987;BME280;46181;51.498;5.392;2022-12-18T08:29:59;102508.5;;;-0.76;58.53418
59987;BME280;46181;51.498;5.392;2022-12-18T08:34:29;102512.4;;;-0.61;58.37891
59987;BME280;46181;51.498;5.392;2022-12-18T08:39:00;102515.2;;;-0.53;58.33496
59987;BME280;46181;51.498;5.392;2022-12-18T08:43:29;102494.5;;;-0.43;58.23926
59987;BME280;46181;51.498;5.392;2022-12-18T08:47:59;102489.1;;;-0.35;58.36035
59987;BME280;46181;51.498;5.392;2022-12-18T08:52:30;102483.9;;;-0.24;58.09082
59987;BME280;46181;51.498;5.392;2022-12-18T08:57:00;102496.1;;;-0.1;58.01074
59987;BME280;46181;51.498;5.392;2022-12-18T09:01:30;102481.5;;;0;57.9248
59987;BME280;46181;51.498;5.392;2022-12-18T09:05:59;102473.6;;;0.12;57.9082
59987;BME280;46181;51.498;5.392;2022-12-18T09:10:29;102490.2;;;0.24;57.71484
59987;BME280;46181;51.498;5.392;2022-12-18T09:15:00;102505.5;;;0.38;57.68066
59987;BME280;46181;51.498;5.392;2022-12-18T09:19:30;102507.2;;;0.44;57.57813
59987;BME280;46181;51.498;5.392;2022-12-18T09:24:02;102506.4;;;0.52;57.4668
59987;BME280;46181;51.498;5.392;2022-12-18T09:28:31;102504.5;;;0.63;57.40625
59987;BME280;46181;51.498;5.392;2022-12-18T09:33:04;102484.9;;;0.68;57.2373
59987;BME280;46181;51.498;5.392;2022-12-18T09:37:29;102479.9;;;0.77;57.0957
59987;BME280;46181;51.498;5.392;2022-12-18T09:42:00;102481.6;;;0.83;57.04785
59987;BME280;46181;51.498;5.392;2022-12-18T09:46:33;102479.8;;;0.9;56.9248
59987;BME280;46181;51.498;5.392;2022-12-18T09:51:01;102465.3;;;1.01;56.74219
59987;BME280;46181;51.498;5.392;2022-12-18T09:55:33;102445.9;;;1.08;56.78418
59987;BME280;46181;51.498;5.392;2022-12-18T10:00:04;102459.2;;;1.17;56.66211
59987;BME280;46181;51.498;5.392;2022-12-18T10:04:30;102466.7;;;1.28;56.55762
59987;BME280;46181;51.498;5.392;2022-12-18T10:09:05;102462;;;1.37;56.51367
59987;BME280;46181;51.498;5.392;2022-12-18T10:13:33;102465.7;;;1.55;56.40527
59987;BME280;46181;51.498;5.392;2022-12-18T10:18:04;102463.9;;;1.72;56.40527
59987;BME280;46181;51.498;5.392;2022-12-18T10:22:53;102465.4;;;1.81;56.47266
59987;BME280;46181;51.498;5.392;2022-12-18T10:27:04;102460.1;;;2.02;56.06934
59987;BME280;46181;51.498;5.392;2022-12-18T10:31:31;102443.7;;;2.11;55.98145
59987;BME280;46181;51.498;5.392;2022-12-18T10:36:03;102432.5;;;2.23;55.95313
59987;BME280;46181;51.498;5.392;2022-12-18T10:40:32;102420.9;;;2.3;55.74316
59987;BME280;46181;51.498;5.392;2022-12-18T10:45:11;102408;;;2.34;55.81348
59987;BME280;46181;51.498;5.392;2022-12-18T10:49:35;102398.2;;;2.41;55.55762
59987;BME280;46181;51.498;5.392;2022-12-18T10:54:02;102400.8;;;2.53;55.43945
59987;BME280;46181;51.498;5.392;2022-12-18T10:58:33;102394.6;;;2.63;55.27637
59987;BME280;46181;51.498;5.392;2022-12-18T11:03:00;102379.9;;;2.72;55.06641
59987;BME280;46181;51.498;5.392;2022-12-18T11:07:30;102376.7;;;2.81;55.21094
59987;BME280;46181;51.498;5.392;2022-12-18T11:12:02;102379.6;;;2.95;55.04102
59987;BME280;46181;51.498;5.392;2022-12-18T11:16:33;102386.5;;;3.07;54.93457
59987;BME280;46181;51.498;5.392;2022-12-18T11:21:05;102381.1;;;3.13;54.90918
59987;BME280;46181;51.498;5.392;2022-12-18T11:25:33;102366.4;;;3.26;54.84863
59987;BME280;46181;51.498;5.392;2022-12-18T11:30:21;102357.4;;;3.34;54.73633
59987;BME280;46181;51.498;5.392;2022-12-18T11:34:35;102354.5;;;3.35;54.58301
59987;BME280;46181;51.498;5.392;2022-12-18T11:39:03;102356.4;;;3.42;54.58105
59987;BME280;46181;51.498;5.392;2022-12-18T11:43:35;102346.1;;;3.49;54.5127
59987;BME280;46181;51.498;5.392;2022-12-18T11:48:05;102349.3;;;3.57;54.31055
59987;BME280;46181;51.498;5.392;2022-12-18T11:52:33;102350.6;;;3.64;54.27539
59987;BME280;46181;51.498;5.392;2022-12-18T11:57:03;102336;;;3.67;54.11426
59987;BME280;46181;51.498;5.392;2022-12-18T12:01:43;102334.4;;;3.65;54.15527
59987;BME280;46181;51.498;5.392;2022-12-18T12:06:10;102326.5;;;3.71;54.1416
59987;BME280;46181;51.498;5.392;2022-12-18T12:10:39;102311;;;3.75;54.14551
59987;BME280;46181;51.498;5.392;2022-12-18T12:15:04;102302.1;;;3.84;54.1123
59987;BME280;46181;51.498;5.392;2022-12-18T12:19:42;102307.2;;;3.82;54.01074
59987;BME280;46181;51.498;5.392;2022-12-18T12:24:04;102300.1;;;3.96;53.94922
59987;BME280;46181;51.498;5.392;2022-12-18T12:33:14;102281.6;;;4.01;53.91309
59987;BME280;46181;51.498;5.392;2022-12-18T12:37:39;102279.4;;;4.06;53.7627
59987;BME280;46181;51.498;5.392;2022-12-18T12:42:02;102272.5;;;4.12;53.66016
59987;BME280;46181;51.498;5.392;2022-12-18T12:46:32;102260.7;;;4.15;53.44043
59987;BME280;46181;51.498;5.392;2022-12-18T12:51:01;102255.2;;;4.2;53.54688
59987;BME280;46181;51.498;5.392;2022-12-18T12:55:31;102250.4;;;4.22;53.4043
59987;BME280;46181;51.498;5.392;2022-12-18T13:00:07;102245.4;;;4.2;53.40332
59987;BME280;46181;51.498;5.392;2022-12-18T13:04:36;102239.7;;;4.26;53.47656
59987;BME280;46181;51.498;5.392;2022-12-18T13:09:08;102231.8;;;4.29;53.46875
59987;BME280;46181;51.498;5.392;2022-12-18T13:13:30;102228.4;;;4.32;53.21777
59987;BME280;46181;51.498;5.392;2022-12-18T13:18:16;102222.1;;;4.23;53.2627
59987;BME280;46181;51.498;5.392;2022-12-18T13:22:38;102219.6;;;4.31;53.36133
59987;BME280;46181;51.498;5.392;2022-12-18T13:27:00;102222;;;4.37;53.16797
59987;BME280;46181;51.498;5.392;2022-12-18T13:36:14;102231.9;;;4.3;53.34961
59987;BME280;46181;51.498;5.392;2022-12-18T13:45:00;102210.3;;;4.33;53.15234
59987;BME280;46181;51.498;5.392;2022-12-18T13:49:35;102205.9;;;4.33;53.15234
59987;BME280;46181;51.498;5.392;2022-12-18T13:54:17;102197.9;;;4.37;53.05664
59987;BME280;46181;51.498;5.392;2022-12-18T13:58:30;102199.3;;;4.4;52.99414
59987;BME280;46181;51.498;5.392;2022-12-18T14:03:00;102202.5;;;4.45;53.02246
59987;BME280;46181;51.498;5.392;2022-12-18T14:07:31;102195.3;;;4.49;52.99512
59987;BME280;46181;51.498;5.392;2022-12-18T14:12:00;102188.3;;;4.53;52.92285
59987;BME280;46181;51.498;5.392;2022-12-18T14:16:30;102193.1;;;4.53;52.9209
59987;BME280;46181;51.498;5.392;2022-12-18T14:21:05;102191.3;;;4.5;52.86133
59987;BME280;46181;51.498;5.392;2022-12-18T14:25:31;102186.2;;;4.53;52.76563
59987;BME280;46181;51.498;5.392;2022-12-18T14:30:00;102184.2;;;4.52;52.85352
59987;BME280;46181;51.498;5.392;2022-12-18T14:34:35;102181.4;;;4.48;52.73828
59987;BME280;46181;51.498;5.392;2022-12-18T14:39:03;102190.7;;;4.49;52.83887
59987;BME280;46181;51.498;5.392;2022-12-18T14:43:31;102187.8;;;4.52;52.63086
59987;BME280;46181;51.498;5.392;2022-12-18T14:48:00;102184.8;;;4.51;52.59668
59987;BME280;46181;51.498;5.392;2022-12-18T14:52:32;102179.4;;;4.5;52.71777
59987;BME280;46181;51.498;5.392;2022-12-18T14:57:01;102183.4;;;4.5;52.61719
59987;BME280;46181;51.498;5.392;2022-12-18T15:01:35;102192.4;;;4.45;52.52246
59987;BME280;46181;51.498;5.392;2022-12-18T15:06:00;102178.7;;;4.45;52.43359
59987;BME280;46181;51.498;5.392;2022-12-18T15:10:31;102177.5;;;4.42;52.54102
59987;BME280;46181;51.498;5.392;2022-12-18T15:15:00;102174.5;;;4.44;52.46582
59987;BME280;46181;51.498;5.392;2022-12-18T15:19:31;102160.5;;;4.41;52.27344
59987;BME280;46181;51.498;5.392;2022-12-18T15:24:03;102162.4;;;4.4;52.57129
59987;BME280;46181;51.498;5.392;2022-12-18T15:28:34;102163.5;;;4.36;52.66797
59987;BME280;46181;51.498;5.392;2022-12-18T15:37:30;102150.1;;;4.39;52.54883
59987;BME280;46181;51.498;5.392;2022-12-18T15:42:00;102144.5;;;4.4;52.59473
59987;BME280;46181;51.498;5.392;2022-12-18T15:46:31;102138.7;;;4.41;52.68457
59987;BME280;46181;51.498;5.392;2022-12-18T15:51:01;102132;;;4.41;52.70703
59987;BME280;46181;51.498;5.392;2022-12-18T15:55:33;102127.6;;;4.44;52.63281
59987;BME280;46181;51.498;5.392;2022-12-18T16:00:00;102125.3;;;4.45;52.45605
59987;BME280;46181;51.498;5.392;2022-12-18T16:04:31;102130.5;;;4.44;52.50977
59987;BME280;46181;51.498;5.392;2022-12-18T16:09:00;102127.9;;;4.44;52.44336
59987;BME280;46181;51.498;5.392;2022-12-18T16:13:30;102127.7;;;4.43;52.52051
59987;BME280;46181;51.498;5.392;2022-12-18T16:18:00;102118.6;;;4.44;52.44336
59987;BME280;46181;51.498;5.392;2022-12-18T16:22:33;102101.4;;;4.43;52.4873
59987;BME280;46181;51.498;5.392;2022-12-18T16:27:01;102087.2;;;4.46;52.55762
59987;BME280;46181;51.498;5.392;2022-12-18T16:31:30;102090.2;;;4.48;52.54785
59987;BME280;46181;51.498;5.392;2022-12-18T16:36:04;102086.4;;;4.46;52.52441
59987;BME280;46181;51.498;5.392;2022-12-18T16:40:30;102081;;;4.49;52.39453
59987;BME280;46181;51.498;5.392;2022-12-18T16:45:00;102073.1;;;4.54;52.30078
59987;BME280;46181;51.498;5.392;2022-12-18T16:49:30;102062.1;;;4.52;52.32031
59987;BME280;46181;51.498;5.392;2022-12-18T16:54:01;102063.7;;;4.54;52.18945
59987;BME280;46181;51.498;5.392;2022-12-18T16:58:30;102058;;;4.56;52.28125
59987;BME280;46181;51.498;5.392;2022-12-18T17:03:00;102043.9;;;4.57;52.10449
59987;BME280;46181;51.498;5.392;2022-12-18T17:07:30;102052;;;4.56;52.14746
59987;BME280;46181;51.498;5.392;2022-12-18T17:12:00;102036;;;4.58;52.17188
59987;BME280;46181;51.498;5.392;2022-12-18T17:16:30;102041.7;;;4.61;52.10742
59987;BME280;46181;51.498;5.392;2022-12-18T17:21:02;102050.1;;;4.67;51.88184
59987;BME280;46181;51.498;5.392;2022-12-18T17:25:30;102057.8;;;4.65;52.00195
59987;BME280;46181;51.498;5.392;2022-12-18T17:30:00;102057.1;;;4.65;52.05762
59987;BME280;46181;51.498;5.392;2022-12-18T17:34:30;102054;;;4.67;52.11621
59987;BME280;46181;51.498;5.392;2022-12-18T17:39:03;102060.9;;;4.67;51.99316
59987;BME280;46181;51.498;5.392;2022-12-18T17:43:30;102063.3;;;4.7;52.08594
59987;BME280;46181;51.498;5.392;2022-12-18T17:48:00;102056.8;;;4.73;52.02246
59987;BME280;46181;51.498;5.392;2022-12-18T17:52:30;102058.3;;;4.76;52.06055
59987;BME280;46181;51.498;5.392;2022-12-18T17:57:00;102058.8;;;4.78;51.99609
59987;BME280;46181;51.498;5.392;2022-12-18T18:01:31;102053.5;;;4.81;52.06543
59987;BME280;46181;51.498;5.392;2022-12-18T18:06:02;102061.1;;;4.84;51.96973
59987;BME280;46181;51.498;5.392;2022-12-18T18:10:30;102055.6;;;4.93;51.86816
59987;BME280;46181;51.498;5.392;2022-12-18T18:15:00;102052.4;;;4.92;51.91309
59987;BME280;46181;51.498;5.392;2022-12-18T18:19:31;102053.4;;;4.94;51.85938
59987;BME280;46181;51.498;5.392;2022-12-18T18:24:02;102042.8;;;4.97;51.67285
59987;BME280;46181;51.498;5.392;2022-12-18T18:28:30;102035.8;;;5;51.72266
59987;BME280;46181;51.498;5.392;2022-12-18T18:33:00;102036.4;;;5.03;51.79199
59987;BME280;46181;51.498;5.392;2022-12-18T18:37:30;102038.3;;;5.07;51.66309
59987;BME280;46181;51.498;5.392;2022-12-18T18:42:00;102038.2;;;5.06;51.5957
59987;BME280;46181;51.498;5.392;2022-12-18T18:46:30;102040.2;;;5.07;51.47363
59987;BME280;46181;51.498;5.392;2022-12-18T18:51:09;102048.1;;;5.07;51.65332
59987;BME280;46181;51.498;5.392;2022-12-18T18:55:30;102041.2;;;5.24;51.24902
59987;BME280;46181;51.498;5.392;2022-12-18T19:00:00;102039.6;;;5.23;51.16895
59987;BME280;46181;51.498;5.392;2022-12-18T19:04:30;102040.8;;;5.22;50.99121
59987;BME280;46181;51.498;5.392;2022-12-18T19:09:01;102036.5;;;5.24;51.01563
59987;BME280;46181;51.498;5.392;2022-12-18T19:13:32;102037.3;;;5.27;51.20801
59987;BME280;46181;51.498;5.392;2022-12-18T19:18:00;102039.1;;;5.31;51.29102
59987;BME280;46181;51.498;5.392;2022-12-18T19:22:31;102039.9;;;5.3;51.2666
59987;BME280;46181;51.498;5.392;2022-12-18T19:27:00;102046.5;;;5.27;51.68652
59987;BME280;46181;51.498;5.392;2022-12-18T19:31:30;102050.5;;;5.21;52.10254
59987;BME280;46181;51.498;5.392;2022-12-18T19:36:00;102051;;;5.15;52.5752
59987;BME280;46181;51.498;5.392;2022-12-18T19:40:30;102051;;;5.08;53.06738
59987;BME280;46181;51.498;5.392;2022-12-18T19:45:00;102045;;;5.03;53.45117
59987;BME280;46181;51.498;5.392;2022-12-18T19:49:34;102040.2;;;4.99;53.83496
59987;BME280;46181;51.498;5.392;2022-12-18T19:54:00;102046.4;;;5.01;54.51563
59987;BME280;46181;51.498;5.392;2022-12-18T19:58:30;102043;;;4.99;55.13574
59987;BME280;46181;51.498;5.392;2022-12-18T20:03:00;102046.1;;;5.01;55.60547
59987;BME280;46181;51.498;5.392;2022-12-18T20:07:30;102050;;;4.98;55.87988
59987;BME280;46181;51.498;5.392;2022-12-18T20:12:00;102050.2;;;4.98;56.1582
59987;BME280;46181;51.498;5.392;2022-12-18T20:16:31;102043.3;;;4.96;56.62305
59987;BME280;46181;51.498;5.392;2022-12-18T20:21:00;102037.6;;;4.97;56.87988
59987;BME280;46181;51.498;5.392;2022-12-18T20:25:30;102036.1;;;5.01;57.12891
59987;BME280;46181;51.498;5.392;2022-12-18T20:30:00;102042.3;;;5;57.26172
59987;BME280;46181;51.498;5.392;2022-12-18T20:34:30;102037.6;;;5.02;57.51855
59987;BME280;46181;51.498;5.392;2022-12-18T20:39:00;102034.6;;;5.04;57.72168
59987;BME280;46181;51.498;5.392;2022-12-18T20:43:30;102029.2;;;5.05;58.0791
59987;BME280;46181;51.498;5.392;2022-12-18T20:48:01;102020.6;;;5.03;58.28809
59987;BME280;46181;51.498;5.392;2022-12-18T20:52:30;102018.9;;;5.04;58.57715
59987;BME280;46181;51.498;5.392;2022-12-18T20:57:00;102012.9;;;5.05;58.71289
59987;BME280;46181;51.498;5.392;2022-12-18T21:01:30;102008;;;5.03;58.95508
59987;BME280;46181;51.498;5.392;2022-12-18T21:06:00;101996.3;;;5.05;59.11328
59987;BME280;46181;51.498;5.392;2022-12-18T21:10:30;101990.5;;;5.07;59.35938
59987;BME280;46181;51.498;5.392;2022-12-18T21:15:00;101987.8;;;5.08;59.5957
59987;BME280;46181;51.498;5.392;2022-12-18T21:19:31;101985.9;;;5.1;59.78516
59987;BME280;46181;51.498;5.392;2022-12-18T21:24:00;101978;;;5.1;59.98535
59987;BME280;46181;51.498;5.392;2022-12-18T21:28:33;101978;;;5.09;60.11719
59987;BME280;46181;51.498;5.392;2022-12-18T21:33:00;101976.3;;;5.12;60.20996
59987;BME280;46181;51.498;5.392;2022-12-18T21:37:30;101972.7;;;5.13;60.32422
59987;BME280;46181;51.498;5.392;2022-12-18T21:42:00;101966.1;;;5.18;60.37598
59987;BME280;46181;51.498;5.392;2022-12-18T21:46:32;101960.9;;;5.19;60.59766
59987;BME280;46181;51.498;5.392;2022-12-18T21:51:00;101957.2;;;5.2;60.75586
59987;BME280;46181;51.498;5.392;2022-12-18T21:55:30;101958.8;;;5.2;60.89941
59987;BME280;46181;51.498;5.392;2022-12-18T22:00:00;101942.8;;;5.21;61.10156
59987;BME280;46181;51.498;5.392;2022-12-18T22:04:30;101928;;;5.23;61.3584
59987;BME280;46181;51.498;5.392;2022-12-18T22:09:00;101917.2;;;5.3;61.33691
59987;BME280;46181;51.498;5.392;2022-12-18T22:13:30;101900.3;;;5.3;61.54785
59987;BME280;46181;51.498;5.392;2022-12-18T22:18:00;101901.3;;;5.3;61.87988
59987;BME280;46181;51.498;5.392;2022-12-18T22:22:30;101896.1;;;5.35;62.13184
59987;BME280;46181;51.498;5.392;2022-12-18T22:27:01;101893.1;;;5.35;62.24316
59987;BME280;46181;51.498;5.392;2022-12-18T22:31:30;101883.8;;;5.37;62.28027
59987;BME280;46181;51.498;5.392;2022-12-18T22:36:00;101871;;;5.38;62.4248
59987;BME280;46181;51.498;5.392;2022-12-18T22:40:31;101861.5;;;5.42;62.45313
59987;BME280;46181;51.498;5.392;2022-12-18T22:45:00;101848.4;;;5.51;62.50977
59987;BME280;46181;51.498;5.392;2022-12-18T22:49:31;101839.5;;;5.52;62.63379
59987;BME280;46181;51.498;5.392;2022-12-18T22:54:00;101836.5;;;5.55;62.76074
59987;BME280;46181;51.498;5.392;2022-12-18T22:58:30;101840.2;;;5.58;62.88672
59987;BME280;46181;51.498;5.392;2022-12-18T23:03:00;101838.5;;;5.65;62.96484
59987;BME280;46181;51.498;5.392;2022-12-18T23:07:30;101847;;;5.7;62.98242
59987;BME280;46181;51.498;5.392;2022-12-18T23:12:00;101846.5;;;5.77;62.94922
59987;BME280;46181;51.498;5.392;2022-12-18T23:16:30;101820.6;;;5.82;62.99023
59987;BME280;46181;51.498;5.392;2022-12-18T23:21:01;101810.3;;;5.85;63.03809
59987;BME280;46181;51.498;5.392;2022-12-18T23:25:30;101800.6;;;5.88;63.05371
59987;BME280;46181;51.498;5.392;2022-12-18T23:30:00;101795.1;;;5.89;63.17871